createdAt,value
2019-03-03T18:10:35.305Z,9.10
2019-03-03T18:11:41.860Z,9.00
2019-03-03T18:12:48.805Z,6.50
2019-03-03T18:13:55.659Z,5.40
2019-03-03T18:15:02.533Z,5.20
2019-03-03T18:16:09.603Z,5.00
2019-03-03T18:17:16.600Z,5.80
2019-03-03T18:18:23.368Z,4.80
2019-03-03T18:19:30.324Z,5.20
2019-03-03T18:20:37.115Z,4.80
2019-03-03T18:21:43.852Z,4.90
2019-03-03T18:22:50.813Z,5.00
2019-03-03T18:23:57.754Z,5.50
2019-03-03T18:25:04.652Z,7.80
2019-03-03T18:26:11.514Z,15.50
2019-03-03T18:27:18.315Z,16.90
2019-03-03T18:28:25.148Z,15.20
2019-03-03T18:29:32.029Z,14.30
2019-03-03T18:30:38.796Z,6.20
2019-03-03T18:31:45.619Z,4.80
2019-03-03T18:32:52.560Z,5.20
2019-03-03T18:33:59.412Z,5.00
2019-03-03T18:35:06.311Z,5.30
2019-03-03T18:36:14.585Z,4.90
2019-03-03T18:37:20.124Z,4.70
2019-03-03T18:38:26.956Z,5.70
2019-03-03T18:39:34.033Z,5.20
2019-03-03T18:40:40.966Z,5.70
2019-03-03T18:41:48.375Z,5.30
2019-03-03T18:42:55.292Z,5.80
2019-03-03T18:44:02.333Z,6.00
2019-03-03T18:45:08.787Z,5.70
2019-03-03T18:46:15.863Z,5.10
2019-03-03T18:47:22.739Z,5.00
2019-03-03T18:48:29.499Z,5.00
2019-03-03T18:49:36.356Z,5.20
2019-03-03T18:50:43.124Z,5.90
2019-03-03T18:51:50.096Z,5.20
2019-03-03T18:52:57.088Z,5.50
2019-03-03T18:54:03.964Z,5.20
2019-03-03T18:55:11.514Z,4.70
2019-03-03T18:56:18.033Z,5.40
2019-03-03T18:57:24.962Z,5.10
2019-03-03T18:58:33.037Z,5.40
2019-03-03T18:59:38.892Z,5.50
2019-03-03T19:00:45.846Z,5.30
2019-03-03T19:01:52.819Z,5.70
2019-03-03T19:02:59.745Z,5.00
2019-03-03T19:04:06.457Z,5.30
2019-03-03T19:05:13.217Z,5.50
2019-03-03T19:06:20.292Z,5.10
2019-03-03T19:07:27.154Z,5.20
2019-03-03T19:08:34.036Z,4.80
2019-03-03T19:09:40.820Z,5.00
2019-03-03T19:10:47.851Z,5.40
2019-03-03T19:11:54.657Z,5.00
2019-03-03T19:13:01.516Z,5.40
2019-03-03T19:14:08.466Z,5.30
2019-03-03T19:15:15.302Z,4.60
2019-03-03T19:16:22.404Z,5.50
2019-03-03T19:17:29.298Z,5.50
2019-03-03T19:18:36.148Z,5.00
2019-03-03T19:19:44.757Z,5.70
2019-03-03T19:20:49.858Z,5.30
2019-03-03T19:21:56.636Z,5.00
2019-03-03T19:23:03.596Z,5.80
2019-03-03T19:24:10.387Z,5.50
2019-03-03T19:25:17.204Z,5.20
2019-03-03T19:26:24.132Z,5.30
2019-03-03T19:27:31.086Z,5.70
2019-03-03T19:28:37.757Z,5.40
2019-03-03T19:29:44.725Z,5.60
2019-03-03T19:30:51.545Z,5.00
2019-03-03T19:31:58.368Z,5.80
2019-03-03T19:33:05.419Z,5.00
2019-03-03T19:34:11.872Z,5.40
2019-03-03T19:35:18.694Z,5.70
2019-03-03T19:36:25.921Z,5.10
2019-03-03T19:37:33.417Z,5.50
2019-03-03T19:38:39.744Z,6.00
2019-03-03T19:39:46.629Z,5.30
2019-03-03T19:40:53.477Z,5.90
2019-03-03T19:42:00.441Z,5.90
2019-03-03T19:43:07.405Z,5.50
2019-03-03T19:44:14.196Z,5.90
2019-03-03T19:45:21.169Z,5.20
2019-03-03T19:46:27.917Z,5.90
2019-03-03T19:47:34.796Z,5.80
2019-03-03T19:48:42.204Z,6.40
2019-03-03T19:49:50.382Z,5.70
2019-03-03T19:50:55.497Z,5.90
2019-03-03T19:52:02.562Z,5.20
2019-03-03T19:53:09.502Z,6.30
2019-03-03T19:54:16.428Z,5.90
2019-03-03T19:55:23.411Z,6.20
2019-03-03T19:56:30.349Z,5.70
2019-03-03T19:57:37.291Z,5.50
2019-03-03T19:58:44.261Z,5.70
2019-03-03T19:59:51.157Z,6.40
2019-03-03T20:00:58.005Z,6.10
2019-03-03T20:02:04.882Z,6.20
2019-03-03T20:03:11.876Z,6.30
2019-03-03T20:04:19.029Z,6.20
2019-03-03T20:05:25.793Z,6.00
2019-03-03T20:06:32.840Z,6.00
2019-03-03T20:07:39.631Z,6.00
2019-03-03T20:08:46.473Z,6.10
2019-03-03T20:09:53.279Z,5.80
2019-03-03T20:11:00.261Z,6.30
2019-03-03T20:12:07.041Z,6.00
2019-03-03T20:13:15.863Z,6.10
2019-03-03T20:14:20.860Z,6.00
2019-03-03T20:15:27.717Z,6.40
2019-03-03T20:16:34.565Z,6.20
2019-03-03T20:17:41.528Z,5.60
2019-03-03T20:18:48.662Z,5.90
2019-03-03T20:19:55.486Z,5.70
2019-03-03T20:21:02.559Z,5.30
2019-03-03T20:22:09.421Z,5.50
2019-03-03T20:23:16.276Z,5.60
2019-03-03T20:24:23.154Z,6.70
2019-03-03T20:25:29.922Z,6.10
2019-03-03T20:26:36.791Z,6.00
2019-03-03T20:27:43.749Z,5.50
2019-03-03T20:28:50.844Z,6.00
2019-03-03T20:29:57.605Z,5.90
2019-03-03T20:31:04.484Z,5.00
2019-03-03T20:32:11.333Z,5.60
2019-03-03T20:33:18.395Z,6.20
2019-03-03T20:34:25.296Z,5.80
2019-03-03T20:35:33.569Z,5.00
2019-03-03T20:36:38.905Z,5.60
2019-03-03T20:37:45.756Z,5.40
2019-03-03T20:38:52.571Z,5.60
2019-03-03T20:39:59.416Z,5.10
2019-03-03T20:41:06.161Z,5.60
2019-03-03T20:42:13.036Z,5.30
2019-03-03T20:43:19.806Z,5.90
2019-03-03T20:44:26.620Z,5.20
2019-03-03T20:45:33.572Z,5.20
2019-03-03T20:46:40.505Z,4.80
2019-03-03T20:47:47.391Z,5.30
2019-03-03T20:48:54.226Z,5.20
2019-03-03T20:50:01.131Z,5.30
2019-03-03T20:51:08.101Z,5.30
2019-03-03T20:52:14.949Z,5.20
2019-03-03T20:53:21.754Z,5.20
2019-03-03T20:54:28.911Z,5.20
2019-03-03T20:55:35.335Z,5.70
2019-03-03T20:56:42.094Z,5.10
2019-03-03T20:57:49.085Z,4.90
2019-03-03T20:58:56.056Z,5.60
2019-03-03T21:00:03.148Z,5.00
2019-03-03T21:01:09.900Z,5.80
2019-03-03T21:02:17.069Z,5.70
2019-03-03T21:03:23.919Z,5.00
2019-03-03T21:04:30.703Z,5.50
2019-03-03T21:05:37.684Z,5.70
2019-03-03T21:06:44.419Z,5.20
2019-03-03T21:07:52.092Z,4.80
2019-03-03T21:08:58.067Z,5.70
2019-03-03T21:10:04.917Z,5.40
2019-03-03T21:11:11.795Z,5.20
2019-03-03T21:12:18.988Z,5.10
2019-03-03T21:13:25.937Z,4.50
2019-03-03T21:14:32.905Z,5.80
2019-03-03T21:15:40.096Z,5.10
2019-03-03T21:16:46.536Z,4.80
2019-03-03T21:17:53.321Z,5.50
2019-03-03T21:19:00.282Z,4.70
2019-03-03T21:20:07.248Z,5.00
2019-03-03T21:21:13.786Z,5.30
2019-03-03T21:22:20.685Z,4.40
2019-03-03T21:23:27.566Z,4.90
2019-03-03T21:24:34.422Z,5.50
2019-03-03T21:25:41.294Z,4.30
2019-03-03T21:26:48.317Z,4.80
2019-03-03T21:27:55.204Z,4.50
2019-03-03T21:29:02.081Z,4.70
2019-03-03T21:30:08.999Z,4.80
2019-03-03T21:31:16.103Z,4.70
2019-03-03T21:32:22.889Z,4.10
2019-03-03T21:33:29.680Z,4.90
2019-03-03T21:34:36.416Z,4.50
2019-03-03T21:35:43.299Z,4.50
2019-03-03T21:36:50.049Z,4.80
2019-03-03T21:37:58.898Z,4.20
2019-03-03T21:39:03.776Z,4.70
2019-03-03T21:40:10.574Z,4.50
2019-03-03T21:41:17.604Z,4.40
2019-03-03T21:42:24.491Z,4.40
2019-03-03T21:43:31.448Z,4.50
2019-03-03T21:44:38.334Z,4.30
2019-03-03T21:45:45.206Z,4.70
2019-03-03T21:46:51.985Z,4.40
2019-03-03T21:47:58.928Z,4.10
2019-03-03T21:49:05.715Z,4.60
2019-03-03T21:50:12.461Z,4.20
2019-03-03T21:51:19.609Z,4.60
2019-03-03T21:52:26.700Z,3.90
2019-03-03T21:53:33.591Z,4.30
2019-03-03T21:54:40.556Z,4.20
2019-03-03T21:55:47.694Z,4.50
2019-03-03T21:56:54.479Z,4.30
2019-03-03T21:58:01.350Z,4.50
2019-03-03T21:59:08.421Z,4.50
2019-03-03T22:00:15.154Z,4.50
2019-03-03T22:01:22.575Z,4.40
2019-03-03T22:02:28.919Z,4.30
2019-03-03T22:03:35.686Z,4.70
2019-03-03T22:04:42.481Z,4.50
2019-03-03T22:05:49.558Z,4.50
2019-03-03T22:06:56.068Z,4.00
2019-03-03T22:08:03.183Z,4.30
2019-03-03T22:09:10.615Z,4.30
2019-03-03T22:10:16.973Z,4.60
2019-03-03T22:11:23.988Z,4.40
2019-03-03T22:12:30.716Z,4.30
2019-03-03T22:13:37.724Z,4.50
2019-03-03T22:14:44.722Z,4.10
2019-03-03T22:15:51.608Z,4.30
2019-03-03T22:16:58.392Z,4.30
2019-03-03T22:18:05.185Z,4.50
2019-03-03T22:19:12.029Z,4.30
2019-03-03T22:20:18.987Z,4.80
2019-03-03T22:21:25.756Z,4.30
2019-03-03T22:22:32.543Z,4.70
2019-03-03T22:23:39.613Z,4.10
2019-03-03T22:24:46.466Z,4.30
2019-03-03T22:25:53.265Z,4.50
2019-03-03T22:27:00.058Z,4.30
2019-03-03T22:28:06.748Z,4.30
2019-03-03T22:29:13.632Z,4.70
2019-03-03T22:30:20.377Z,3.90
2019-03-03T22:31:27.284Z,4.30
2019-03-03T22:32:34.128Z,4.40
2019-03-03T22:33:41.018Z,4.30
2019-03-03T22:34:48.189Z,4.10
2019-03-03T22:35:55.064Z,4.20
2019-03-03T22:37:01.919Z,4.50
2019-03-03T22:38:08.786Z,4.20
2019-03-03T22:39:15.562Z,4.10
2019-03-03T22:40:22.317Z,4.30
2019-03-03T22:41:29.138Z,4.10
2019-03-03T22:42:35.958Z,4.30
2019-03-03T22:43:43.023Z,4.10
2019-03-03T22:44:49.880Z,4.40
2019-03-03T22:45:56.704Z,4.30
2019-03-03T22:47:03.520Z,3.80
2019-03-03T22:48:10.493Z,4.00
2019-03-03T22:49:17.364Z,4.10
2019-03-03T22:50:24.227Z,4.00
2019-03-03T22:51:31.115Z,4.20
2019-03-03T22:52:38.169Z,4.50
2019-03-03T22:53:45.147Z,3.80
2019-03-03T22:54:51.923Z,3.60
2019-03-03T22:55:58.919Z,4.00
2019-03-03T22:57:05.865Z,4.30
2019-03-03T22:58:12.713Z,4.00
2019-03-03T22:59:19.467Z,3.90
2019-03-03T23:00:26.273Z,4.10
2019-03-03T23:01:33.432Z,4.40
2019-03-03T23:02:40.493Z,4.80
2019-03-03T23:03:47.436Z,3.80
2019-03-03T23:04:54.331Z,4.60
2019-03-03T23:06:01.513Z,4.40
2019-03-03T23:07:08.765Z,4.60
2019-03-03T23:08:15.328Z,4.20
2019-03-03T23:09:22.083Z,4.20
2019-03-03T23:10:29.117Z,4.30
2019-03-03T23:12:40.869Z,4.60
2019-03-03T23:13:48.020Z,4.80
2019-03-03T23:14:54.678Z,4.40
2019-03-03T23:16:01.561Z,4.40
2019-03-03T23:18:14.332Z,4.30
2019-03-03T23:19:21.243Z,4.20
2019-03-03T23:20:28.180Z,4.60
2019-03-03T23:21:34.787Z,4.40
2019-03-03T23:22:41.660Z,4.10
2019-03-03T23:23:48.512Z,4.70
2019-03-03T23:24:55.378Z,4.10
2019-03-03T23:26:02.360Z,4.00
2019-03-03T23:27:09.217Z,4.00
2019-03-03T23:28:15.871Z,4.10
2019-03-03T23:29:23.157Z,4.60
2019-03-03T23:30:29.959Z,4.30
2019-03-03T23:31:37.001Z,3.90
2019-03-03T23:32:43.859Z,3.80
2019-03-03T23:33:50.728Z,3.60
2019-03-03T23:34:57.467Z,4.00
2019-03-03T23:36:04.359Z,4.10
2019-03-03T23:37:11.241Z,4.00
2019-03-03T23:38:18.185Z,3.90
2019-03-03T23:39:24.940Z,4.40
2019-03-03T23:40:31.708Z,3.90
2019-03-03T23:41:38.604Z,3.80
2019-03-03T23:42:45.573Z,3.80
2019-03-03T23:43:52.368Z,3.60
2019-03-03T23:44:59.212Z,4.10
2019-03-03T23:46:05.956Z,3.60
2019-03-03T23:47:12.856Z,3.80
2019-03-03T23:48:20.024Z,4.30
2019-03-03T23:49:26.465Z,3.70
2019-03-03T23:50:33.208Z,4.50
2019-03-03T23:51:40.083Z,3.30
2019-03-03T23:52:46.913Z,4.50
2019-03-03T23:53:53.697Z,4.00
2019-03-03T23:55:00.486Z,4.20
2019-03-03T23:56:07.657Z,4.30
2019-03-03T23:57:14.853Z,4.00
2019-03-03T23:59:28.779Z,4.10
